sensor_id;sensor_type;location;lat;lon;timestamp;pressure;altitude;pressure_sealevel;temperature;humidity
21574;BME280;10948;48.706;9.258;2024-02-15T00:00:20;98266.53;;;10.68;100.00
21574;BME280;10948;48.706;9.258;2024-02-15T00:02:45;98267.16;;;10.56;100.00
21574;BME280;10948;48.706;9.258;2024-02-15T00:05:11;98270.09;;;10.50;100.00
21574;BME280;10948;48.706;9.258;2024-02-15T00:07:36;98263.72;;;10.56;100.00
21574;BME280;10948;48.706;9.258;2024-02-15T00:10:02;98266.34;;;10.39;100.00
21574;BME280;10948;48.706;9.258;2024-02-15T00:12:29;98267.72;;;10.46;100.00
21574;BME280;10948;48.706;9.258;2024-02-15T00:14:54;98266.28;;;10.40;100.00
21574;BME280;10948;48.706;9.258;2024-02-15T00:17:23;98260.31;;;10.38;100.00
21574;BME280;10948;48.706;9.258;2024-02-15T00:19:48;98264.59;;;10.22;100.00
21574;BME280;10948;48.706;9.258;2024-02-15T00:22:13;98271.41;;;10.42;100.00
21574;BME280;10948;48.706;9.258;2024-02-15T00:24:38;98275.84;;;10.23;100.00
21574;BME280;10948;48.706;9.258;2024-02-15T00:27:04;98264.06;;;10.33;100.00
21574;BME280;10948;48.706;9.258;2024-02-15T00:29:29;98270.03;;;10.35;100.00
21574;BME280;10948;48.706;9.258;2024-02-15T00:31:54;98268.88;;;10.40;100.00
21574;BME280;10948;48.706;9.258;2024-02-15T00:34:20;98280.59;;;10.49;100.00
21574;BME280;10948;48.706;9.258;2024-02-15T00:36:45;98273.09;;;10.43;100.00
21574;BME280;10948;48.706;9.258;2024-02-15T00:39:11;98274.25;;;10.37;100.00
21574;BME280;10948;48.706;9.258;2024-02-15T00:41:37;98272.41;;;10.39;100.00
21574;BME280;10948;48.706;9.258;2024-02-15T00:44:02;98267.34;;;10.36;100.00
21574;BME280;10948;48.706;9.258;2024-02-15T00:46:27;98274.38;;;10.34;100.00
21574;BME280;10948;48.706;9.258;2024-02-15T00:48:54;98265.91;;;10.31;100.00
21574;BME280;10948;48.706;9.258;2024-02-15T00:51:19;98255.25;;;10.35;100.00
21574;BME280;10948;48.706;9.258;2024-02-15T00:53:45;98256.94;;;10.36;100.00
21574;BME280;10948;48.706;9.258;2024-02-15T00:56:10;98253.06;;;10.28;100.00
21574;BME280;10948;48.706;9.258;2024-02-15T00:58:35;98255.72;;;10.43;100.00
21574;BME280;10948;48.706;9.258;2024-02-15T01:01:00;98249.59;;;10.44;100.00
21574;BME280;10948;48.706;9.258;2024-02-15T01:03:26;98247.91;;;10.43;100.00
21574;BME280;10948;48.706;9.258;2024-02-15T01:05:51;98244.41;;;10.27;100.00
21574;BME280;10948;48.706;9.258;2024-02-15T01:08:17;98240.50;;;10.19;100.00
21574;BME280;10948;48.706;9.258;2024-02-15T01:10:42;98245.81;;;10.17;100.00
21574;BME280;10948;48.706;9.258;2024-02-15T01:13:07;98247.03;;;10.10;100.00
21574;BME280;10948;48.706;9.258;2024-02-15T01:15:33;98241.91;;;10.09;100.00
21574;BME280;10948;48.706;9.258;2024-02-15T01:17:59;98232.31;;;10.09;100.00
21574;BME280;10948;48.706;9.258;2024-02-15T01:20:24;98238.56;;;10.07;100.00
21574;BME280;10948;48.706;9.258;2024-02-15T01:22:49;98240.94;;;9.93;100.00
21574;BME280;10948;48.706;9.258;2024-02-15T01:25:16;98241.47;;;9.82;100.00
21574;BME280;10948;48.706;9.258;2024-02-15T01:27:42;98235.69;;;9.77;100.00
21574;BME280;10948;48.706;9.258;2024-02-15T01:30:07;98238.75;;;9.85;100.00
21574;BME280;10948;48.706;9.258;2024-02-15T01:32:33;98231.22;;;9.96;100.00
21574;BME280;10948;48.706;9.258;2024-02-15T01:34:59;98233.22;;;9.74;100.00
21574;BME280;10948;48.706;9.258;2024-02-15T01:37:24;98233.38;;;9.88;100.00
21574;BME280;10948;48.706;9.258;2024-02-15T01:39:49;98239.81;;;9.81;100.00
21574;BME280;10948;48.706;9.258;2024-02-15T01:42:15;98238.75;;;9.85;100.00
21574;BME280;10948;48.706;9.258;2024-02-15T01:44:40;98236.91;;;9.87;100.00
21574;BME280;10948;48.706;9.258;2024-02-15T01:47:06;98234.66;;;9.80;100.00
21574;BME280;10948;48.706;9.258;2024-02-15T01:49:31;98234.38;;;9.86;100.00
21574;BME280;10948;48.706;9.258;2024-02-15T01:51:57;98233.69;;;9.82;100.00
21574;BME280;10948;48.706;9.258;2024-02-15T01:54:22;98237.25;;;9.80;100.00
21574;BME280;10948;48.706;9.258;2024-02-15T01:56:48;98227.88;;;9.60;100.00
21574;BME280;10948;48.706;9.258;2024-02-15T01:59:16;98229.69;;;9.58;100.00
21574;BME280;10948;48.706;9.258;2024-02-15T02:01:42;98226.31;;;9.56;100.00
21574;BME280;10948;48.706;9.258;2024-02-15T02:04:08;98222.66;;;9.60;100.00
21574;BME280;10948;48.706;9.258;2024-02-15T02:06:34;98222.81;;;9.57;100.00
21574;BME280;10948;48.706;9.258;2024-02-15T02:08:59;98226.94;;;9.44;100.00
21574;BME280;10948;48.706;9.258;2024-02-15T02:11:24;98228.56;;;9.28;100.00
21574;BME280;10948;48.706;9.258;2024-02-15T02:13:49;98225.50;;;9.20;100.00
21574;BME280;10948;48.706;9.258;2024-02-15T02:16:29;98224.38;;;9.07;100.00
21574;BME280;10948;48.706;9.258;2024-02-15T02:18:55;98226.63;;;9.15;100.00
21574;BME280;10948;48.706;9.258;2024-02-15T02:21:21;98226.56;;;8.98;100.00
21574;BME280;10948;48.706;9.258;2024-02-15T02:23:47;98229.22;;;8.96;100.00
21574;BME280;10948;48.706;9.258;2024-02-15T02:26:16;98228.94;;;8.84;100.00
21574;BME280;10948;48.706;9.258;2024-02-15T02:28:41;98229.09;;;8.81;100.00
21574;BME280;10948;48.706;9.258;2024-02-15T02:31:07;98231.81;;;8.78;100.00
21574;BME280;10948;48.706;9.258;2024-02-15T02:33:32;98235.53;;;8.72;100.00
21574;BME280;10948;48.706;9.258;2024-02-15T02:35:58;98228.03;;;8.66;100.00
21574;BME280;10948;48.706;9.258;2024-02-15T02:38:23;98230.91;;;8.60;100.00
21574;BME280;10948;48.706;9.258;2024-02-15T02:40:51;98226.84;;;8.55;100.00
21574;BME280;10948;48.706;9.258;2024-02-15T02:43:16;98228.53;;;8.56;100.00
21574;BME280;10948;48.706;9.258;2024-02-15T02:45:41;98227.41;;;8.80;100.00
21574;BME280;10948;48.706;9.258;2024-02-15T02:48:08;98223.91;;;8.81;100.00
21574;BME280;10948;48.706;9.258;2024-02-15T02:50:33;98231.06;;;8.94;100.00
21574;BME280;10948;48.706;9.258;2024-02-15T02:52:58;98225.72;;;8.79;100.00
21574;BME280;10948;48.706;9.258;2024-02-15T02:55:24;98224.16;;;8.56;100.00
21574;BME280;10948;48.706;9.258;2024-02-15T02:57:52;98229.78;;;8.27;100.00
21574;BME280;10948;48.706;9.258;2024-02-15T03:00:18;98228.75;;;8.31;100.00
21574;BME280;10948;48.706;9.258;2024-02-15T03:02:43;98230.06;;;8.21;100.00
21574;BME280;10948;48.706;9.258;2024-02-15T03:05:09;98222.75;;;8.09;100.00
21574;BME280;10948;48.706;9.258;2024-02-15T03:07:35;98227.91;;;7.91;100.00
21574;BME280;10948;48.706;9.258;2024-02-15T03:10:02;98224.91;;;8.00;100.00
21574;BME280;10948;48.706;9.258;2024-02-15T03:12:33;98227.91;;;8.11;100.00
21574;BME280;10948;48.706;9.258;2024-02-15T03:15:00;98225.03;;;7.77;100.00
21574;BME280;10948;48.706;9.258;2024-02-15T03:17:26;98221.59;;;7.76;100.00
21574;BME280;10948;48.706;9.258;2024-02-15T03:19:52;98223.03;;;7.83;100.00
21574;BME280;10948;48.706;9.258;2024-02-15T03:22:17;98217.56;;;7.69;100.00
21574;BME280;10948;48.706;9.258;2024-02-15T03:24:42;98226.41;;;7.65;100.00
21574;BME280;10948;48.706;9.258;2024-02-15T03:27:07;98213.56;;;7.62;100.00
21574;BME280;10948;48.706;9.258;2024-02-15T03:29:35;98214.75;;;7.54;100.00
21574;BME280;10948;48.706;9.258;2024-02-15T03:32:01;98221.66;;;7.55;100.00
21574;BME280;10948;48.706;9.258;2024-02-15T03:34:26;98222.22;;;7.61;100.00
21574;BME280;10948;48.706;9.258;2024-02-15T03:36:51;98225.50;;;7.45;100.00
21574;BME280;10948;48.706;9.258;2024-02-15T03:39:19;98220.13;;;7.49;100.00
21574;BME280;10948;48.706;9.258;2024-02-15T03:41:44;98220.22;;;7.48;100.00
21574;BME280;10948;48.706;9.258;2024-02-15T03:44:11;98220.09;;;7.29;100.00
21574;BME280;10948;48.706;9.258;2024-02-15T03:46:36;98230.16;;;7.15;100.00
21574;BME280;10948;48.706;9.258;2024-02-15T03:49:01;98230.94;;;7.17;100.00
21574;BME280;10948;48.706;9.258;2024-02-15T03:51:27;98235.13;;;7.20;100.00
21574;BME280;10948;48.706;9.258;2024-02-15T03:53:52;98227.28;;;7.23;100.00
21574;BME280;10948;48.706;9.258;2024-02-15T03:56:17;98225.94;;;7.34;100.00
21574;BME280;10948;48.706;9.258;2024-02-15T03:58:43;98229.91;;;7.21;100.00
21574;BME280;10948;48.706;9.258;2024-02-15T04:01:08;98225.03;;;7.35;100.00
21574;BME280;10948;48.706;9.258;2024-02-15T04:03:35;98227.63;;;7.35;100.00
21574;BME280;10948;48.706;9.258;2024-02-15T04:06:00;98229.19;;;7.18;100.00
21574;BME280;10948;48.706;9.258;2024-02-15T04:08:26;98235.69;;;7.06;100.00
21574;BME280;10948;48.706;9.258;2024-02-15T04:10:52;98240.97;;;7.03;100.00
21574;BME280;10948;48.706;9.258;2024-02-15T04:13:18;98237.81;;;7.18;100.00
21574;BME280;10948;48.706;9.258;2024-02-15T04:15:43;98242.00;;;6.99;100.00
21574;BME280;10948;48.706;9.258;2024-02-15T04:18:09;98239.69;;;7.15;100.00
21574;BME280;10948;48.706;9.258;2024-02-15T04:20:37;98245.34;;;7.24;100.00
21574;BME280;10948;48.706;9.258;2024-02-15T04:23:02;98246.50;;;7.37;100.00
21574;BME280;10948;48.706;9.258;2024-02-15T04:25:28;98243.03;;;7.38;100.00
21574;BME280;10948;48.706;9.258;2024-02-15T04:27:54;98243.03;;;7.38;100.00
21574;BME280;10948;48.706;9.258;2024-02-15T04:30:19;98237.25;;;7.53;100.00
21574;BME280;10948;48.706;9.258;2024-02-15T04:32:45;98246.16;;;7.46;100.00
21574;BME280;10948;48.706;9.258;2024-02-15T04:35:11;98243.88;;;7.60;100.00
21574;BME280;10948;48.706;9.258;2024-02-15T04:37:37;98245.53;;;7.61;100.00
21574;BME280;10948;48.706;9.258;2024-02-15T04:40:02;98241.69;;;7.71;100.00
21574;BME280;10948;48.706;9.258;2024-02-15T04:42:35;98235.16;;;7.41;100.00
21574;BME280;10948;48.706;9.258;2024-02-15T04:45:04;98236.63;;;7.68;100.00
21574;BME280;10948;48.706;9.258;2024-02-15T04:47:34;98232.38;;;7.46;100.00
21574;BME280;10948;48.706;9.258;2024-02-15T04:49:59;98236.09;;;7.60;100.00
21574;BME280;10948;48.706;9.258;2024-02-15T04:52:24;98231.19;;;7.74;100.00
21574;BME280;10948;48.706;9.258;2024-02-15T04:54:50;98233.00;;;7.72;100.00
21574;BME280;10948;48.706;9.258;2024-02-15T04:57:15;98231.06;;;7.77;100.00
21574;BME280;10948;48.706;9.258;2024-02-15T04:59:41;98226.53;;;7.82;100.00
21574;BME280;10948;48.706;9.258;2024-02-15T05:02:12;98226.78;;;7.76;100.00
21574;BME280;10948;48.706;9.258;2024-02-15T05:04:37;98213.91;;;7.95;100.00
21574;BME280;10948;48.706;9.258;2024-02-15T05:07:02;98212.16;;;7.75;100.00
21574;BME280;10948;48.706;9.258;2024-02-15T05:09:28;98225.34;;;7.69;100.00
21574;BME280;10948;48.706;9.258;2024-02-15T05:11:54;98210.47;;;7.74;100.00
21574;BME280;10948;48.706;9.258;2024-02-15T05:14:19;98210.72;;;7.68;100.00
21574;BME280;10948;48.706;9.258;2024-02-15T05:16:48;98214.53;;;7.80;100.00
21574;BME280;10948;48.706;9.258;2024-02-15T05:19:14;98215.25;;;7.83;100.00
21574;BME280;10948;48.706;9.258;2024-02-15T05:21:40;98216.81;;;7.87;100.00
21574;BME280;10948;48.706;9.258;2024-02-15T05:24:06;98226.41;;;8.05;100.00
21574;BME280;10948;48.706;9.258;2024-02-15T05:26:31;98222.25;;;7.81;100.00
21574;BME280;10948;48.706;9.258;2024-02-15T05:28:56;98223.94;;;7.82;100.00
21574;BME280;10948;48.706;9.258;2024-02-15T05:31:22;98216.75;;;7.89;100.00
21574;BME280;10948;48.706;9.258;2024-02-15T05:33:50;98220.88;;;7.93;100.00
21574;BME280;10948;48.706;9.258;2024-02-15T05:36:16;98213.31;;;7.88;100.00
21574;BME280;10948;48.706;9.258;2024-02-15T05:38:45;98211.38;;;7.93;100.00
21574;BME280;10948;48.706;9.258;2024-02-15T05:41:11;98215.00;;;7.89;100.00
21574;BME280;10948;48.706;9.258;2024-02-15T05:43:36;98206.84;;;7.78;100.00
21574;BME280;10948;48.706;9.258;2024-02-15T05:46:02;98209.25;;;8.03;100.00
21574;BME280;10948;48.706;9.258;2024-02-15T05:48:27;98210.22;;;7.80;100.00
21574;BME280;10948;48.706;9.258;2024-02-15T05:50:54;98209.97;;;7.86;100.00
21574;BME280;10948;48.706;9.258;2024-02-15T05:53:19;98210.06;;;7.83;100.00
21574;BME280;10948;48.706;9.258;2024-02-15T05:55:44;98213.38;;;7.87;100.00
21574;BME280;10948;48.706;9.258;2024-02-15T05:58:10;98211.63;;;7.87;100.00
21574;BME280;10948;48.706;9.258;2024-02-15T06:00:36;98215.66;;;7.74;100.00
21574;BME280;10948;48.706;9.258;2024-02-15T06:03:03;98214.47;;;7.81;100.00
21574;BME280;10948;48.706;9.258;2024-02-15T06:05:29;98216.41;;;7.76;100.00
21574;BME280;10948;48.706;9.258;2024-02-15T06:07:54;98213.44;;;7.65;100.00
21574;BME280;10948;48.706;9.258;2024-02-15T06:10:19;98217.72;;;7.86;100.00
21574;BME280;10948;48.706;9.258;2024-02-15T06:12:44;98222.16;;;7.84;100.00
21574;BME280;10948;48.706;9.258;2024-02-15T06:15:10;98210.00;;;7.65;100.00
21574;BME280;10948;48.706;9.258;2024-02-15T06:17:41;98222.75;;;7.69;100.00
21574;BME280;10948;48.706;9.258;2024-02-15T06:20:09;98226.41;;;7.65;100.00
21574;BME280;10948;48.706;9.258;2024-02-15T06:22:37;98218.03;;;7.59;100.00
21574;BME280;10948;48.706;9.258;2024-02-15T06:25:03;98214.59;;;7.58;100.00
21574;BME280;10948;48.706;9.258;2024-02-15T06:27:28;98213.41;;;7.45;100.00
21574;BME280;10948;48.706;9.258;2024-02-15T06:29:53;98210.25;;;7.59;100.00
21574;BME280;10948;48.706;9.258;2024-02-15T06:32:37;98215.22;;;7.43;100.00
21574;BME280;10948;48.706;9.258;2024-02-15T06:35:22;98218.47;;;7.48;100.00
21574;BME280;10948;48.706;9.258;2024-02-15T06:38:05;98221.63;;;7.35;100.00
21574;BME280;10948;48.706;9.258;2024-02-15T06:40:50;98211.97;;;7.38;100.00
21574;BME280;10948;48.706;9.258;2024-02-15T06:43:15;98216.38;;;7.56;100.00
21574;BME280;10948;48.706;9.258;2024-02-15T06:45:41;98219.88;;;7.55;100.00
21574;BME280;10948;48.706;9.258;2024-02-15T06:48:11;98216.53;;;7.53;100.00
21574;BME280;10948;48.706;9.258;2024-02-15T06:50:37;98212.56;;;7.45;100.00
21574;BME280;10948;48.706;9.258;2024-02-15T06:53:02;98201.09;;;7.50;100.00
21574;BME280;10948;48.706;9.258;2024-02-15T06:55:27;98208.31;;;7.64;100.00
21574;BME280;10948;48.706;9.258;2024-02-15T06:57:53;98207.81;;;7.76;100.00
21574;BME280;10948;48.706;9.258;2024-02-15T07:00:20;98206.97;;;7.75;100.00
21574;BME280;10948;48.706;9.258;2024-02-15T07:02:45;98207.56;;;7.82;100.00
21574;BME280;10948;48.706;9.258;2024-02-15T07:05:10;98206.19;;;7.93;100.00
21574;BME280;10948;48.706;9.258;2024-02-15T07:07:35;98216.06;;;7.85;100.00
21574;BME280;10948;48.706;9.258;2024-02-15T07:10:01;98216.16;;;7.82;100.00
21574;BME280;10948;48.706;9.258;2024-02-15T07:12:28;98205.50;;;7.90;100.00
21574;BME280;10948;48.706;9.258;2024-02-15T07:14:53;98205.97;;;8.19;100.00
21574;BME280;10948;48.706;9.258;2024-02-15T07:17:19;98217.16;;;8.58;100.00
21574;BME280;10948;48.706;9.258;2024-02-15T07:19:45;98222.28;;;8.78;100.00
21574;BME280;10948;48.706;9.258;2024-02-15T07:22:10;98220.94;;;9.25;100.00
21574;BME280;10948;48.706;9.258;2024-02-15T07:24:36;98218.97;;;9.47;100.00
21574;BME280;10948;48.706;9.258;2024-02-15T07:27:03;98220.53;;;9.68;100.00
21574;BME280;10948;48.706;9.258;2024-02-15T07:29:29;98223.78;;;9.90;100.00
21574;BME280;10948;48.706;9.258;2024-02-15T07:31:56;98212.91;;;10.16;100.00
21574;BME280;10948;48.706;9.258;2024-02-15T07:34:23;98211.31;;;10.46;100.00
21574;BME280;10948;48.706;9.258;2024-02-15T07:36:50;98207.19;;;10.75;100.00
21574;BME280;10948;48.706;9.258;2024-02-15T07:39:15;98204.59;;;10.42;100.00
21574;BME280;10948;48.706;9.258;2024-02-15T07:41:48;98203.94;;;10.54;100.00
21574;BME280;10948;48.706;9.258;2024-02-15T07:44:14;98202.84;;;11.06;100.00
21574;BME280;10948;48.706;9.258;2024-02-15T07:46:39;98203.31;;;11.43;100.00
21574;BME280;10948;48.706;9.258;2024-02-15T07:49:05;98200.16;;;11.68;100.00
21574;BME280;10948;48.706;9.258;2024-02-15T07:51:31;98195.81;;;11.68;100.00
21574;BME280;10948;48.706;9.258;2024-02-15T07:53:56;98193.94;;;12.00;100.00
21574;BME280;10948;48.706;9.258;2024-02-15T07:56:22;98183.81;;;11.80;100.00
21574;BME280;10948;48.706;9.258;2024-02-15T07:58:48;98183.84;;;11.94;100.00
21574;BME280;10948;48.706;9.258;2024-02-15T08:01:13;98180.53;;;12.06;100.00
21574;BME280;10948;48.706;9.258;2024-02-15T08:03:39;98175.31;;;12.20;100.00
21574;BME280;10948;48.706;9.258;2024-02-15T08:06:09;98167.53;;;13.43;97.77
21574;BME280;10948;48.706;9.258;2024-02-15T08:08:34;98161.47;;;13.02;95.26
21574;BME280;10948;48.706;9.258;2024-02-15T08:11:02;98160.06;;;13.63;93.67
21574;BME280;10948;48.706;9.258;2024-02-15T08:13:27;98170.06;;;13.96;93.12
21574;BME280;10948;48.706;9.258;2024-02-15T08:15:54;98163.84;;;13.72;90.15
21574;BME280;10948;48.706;9.258;2024-02-15T08:18:19;98171.69;;;14.48;87.21
21574;BME280;10948;48.706;9.258;2024-02-15T08:20:45;98166.47;;;14.84;83.99
21574;BME280;10948;48.706;9.258;2024-02-15T08:23:10;98166.88;;;14.30;82.96
21574;BME280;10948;48.706;9.258;2024-02-15T08:25:37;98158.06;;;14.56;85.38
21574;BME280;10948;48.706;9.258;2024-02-15T08:28:03;98161.38;;;14.08;86.79
21574;BME280;10948;48.706;9.258;2024-02-15T08:30:30;98150.81;;;14.47;86.84
21574;BME280;10948;48.706;9.258;2024-02-15T08:32:55;98146.03;;;15.02;84.60
21574;BME280;10948;48.706;9.258;2024-02-15T08:35:20;98132.53;;;16.11;79.25
21574;BME280;10948;48.706;9.258;2024-02-15T08:37:46;98139.34;;;16.25;76.41
21574;BME280;10948;48.706;9.258;2024-02-15T08:40:13;98124.53;;;16.02;76.03
21574;BME280;10948;48.706;9.258;2024-02-15T08:42:40;98124.38;;;16.49;76.24
21574;BME280;10948;48.706;9.258;2024-02-15T08:45:06;98126.25;;;16.47;75.68
21574;BME280;10948;48.706;9.258;2024-02-15T08:47:34;98118.59;;;16.22;75.32
21574;BME280;10948;48.706;9.258;2024-02-15T08:49:59;98118.34;;;16.25;76.00
21574;BME280;10948;48.706;9.258;2024-02-15T08:52:25;98121.06;;;15.20;78.45
21574;BME280;10948;48.706;9.258;2024-02-15T08:54:52;98123.25;;;14.54;81.64
21574;BME280;10948;48.706;9.258;2024-02-15T08:57:17;98130.59;;;13.86;85.75
21574;BME280;10948;48.706;9.258;2024-02-15T08:59:44;98117.06;;;14.55;85.89
21574;BME280;10948;48.706;9.258;2024-02-15T09:02:09;98120.34;;;14.46;84.20
21574;BME280;10948;48.706;9.258;2024-02-15T09:04:35;98113.97;;;14.86;84.16
21574;BME280;10948;48.706;9.258;2024-02-15T09:07:00;98107.41;;;15.04;82.05
21574;BME280;10948;48.706;9.258;2024-02-15T09:09:29;98111.38;;;15.91;78.23
21574;BME280;10948;48.706;9.258;2024-02-15T09:11:55;98108.28;;;16.08;77.54
21574;BME280;10948;48.706;9.258;2024-02-15T09:14:20;98111.44;;;16.46;76.07
21574;BME280;10948;48.706;9.258;2024-02-15T09:16:48;98102.72;;;17.20;72.04
21574;BME280;10948;48.706;9.258;2024-02-15T09:19:24;98102.31;;;16.93;72.24
21574;BME280;10948;48.706;9.258;2024-02-15T09:21:49;98098.97;;;18.06;69.33
21574;BME280;10948;48.706;9.258;2024-02-15T09:24:15;98100.41;;;18.31;68.20
21574;BME280;10948;48.706;9.258;2024-02-15T09:26:41;98100.28;;;17.91;68.46
21574;BME280;10948;48.706;9.258;2024-02-15T09:29:08;98095.38;;;18.97;65.70
21574;BME280;10948;48.706;9.258;2024-02-15T09:31:34;98096.38;;;18.57;65.75
21574;BME280;10948;48.706;9.258;2024-02-15T09:34:01;98101.69;;;18.76;65.91
21574;BME280;10948;48.706;9.258;2024-02-15T09:36:26;98107.56;;;18.49;65.50
21574;BME280;10948;48.706;9.258;2024-02-15T09:38:53;98098.06;;;18.37;65.87
21574;BME280;10948;48.706;9.258;2024-02-15T09:41:18;98100.28;;;18.62;65.24
21574;BME280;10948;48.706;9.258;2024-02-15T09:43:45;98090.31;;;18.75;64.35
21574;BME280;10948;48.706;9.258;2024-02-15T09:46:12;98078.59;;;19.17;64.67
21574;BME280;10948;48.706;9.258;2024-02-15T09:48:37;98084.84;;;20.02;62.38
21574;BME280;10948;48.706;9.258;2024-02-15T09:51:05;98077.25;;;19.32;62.05
21574;BME280;10948;48.706;9.258;2024-02-15T09:53:32;98076.00;;;20.39;61.24
21574;BME280;10948;48.706;9.258;2024-02-15T09:55:58;98078.44;;;20.04;60.19
21574;BME280;10948;48.706;9.258;2024-02-15T09:58:29;98082.47;;;20.18;59.77
21574;BME280;10948;48.706;9.258;2024-02-15T10:00:58;98080.72;;;19.80;60.42
21574;BME280;10948;48.706;9.258;2024-02-15T10:03:24;98080.03;;;20.43;59.41
21574;BME280;10948;48.706;9.258;2024-02-15T10:05:50;98078.88;;;19.90;60.12
21574;BME280;10948;48.706;9.258;2024-02-15T10:08:17;98076.53;;;19.87;59.58
21574;BME280;10948;48.706;9.258;2024-02-15T10:10:43;98068.56;;;20.16;58.42
21574;BME280;10948;48.706;9.258;2024-02-15T10:13:12;98076.38;;;21.25;57.13
21574;BME280;10948;48.706;9.258;2024-02-15T10:15:37;98078.88;;;21.62;55.48
21574;BME280;10948;48.706;9.258;2024-02-15T10:18:05;98072.00;;;20.62;57.18
21574;BME280;10948;48.706;9.258;2024-02-15T10:20:32;98068.28;;;21.09;56.54
21574;BME280;10948;48.706;9.258;2024-02-15T10:25:25;98061.81;;;21.21;55.51
21574;BME280;10948;48.706;9.258;2024-02-15T10:27:51;98060.91;;;22.08;55.38
21574;BME280;10948;48.706;9.258;2024-02-15T10:30:26;98055.78;;;22.66;54.36
21574;BME280;10948;48.706;9.258;2024-02-15T10:32:52;98048.44;;;23.09;52.69
21574;BME280;10948;48.706;9.258;2024-02-15T10:35:21;98046.28;;;23.05;52.52
21574;BME280;10948;48.706;9.258;2024-02-15T10:37:49;98042.00;;;22.62;51.93
21574;BME280;10948;48.706;9.258;2024-02-15T10:40:20;98047.66;;;22.08;52.67
21574;BME280;10948;48.706;9.258;2024-02-15T10:42:50;98046.19;;;21.18;52.56
21574;BME280;10948;48.706;9.258;2024-02-15T10:45:16;98042.13;;;22.02;53.54
21574;BME280;10948;48.706;9.258;2024-02-15T10:47:45;98034.78;;;21.35;53.04
21574;BME280;10948;48.706;9.258;2024-02-15T10:50:12;98033.75;;;21.89;53.31
21574;BME280;10948;48.706;9.258;2024-02-15T10:52:41;98032.06;;;21.27;53.97
21574;BME280;10948;48.706;9.258;2024-02-15T10:55:10;98029.97;;;21.13;53.63
21574;BME280;10948;48.706;9.258;2024-02-15T10:57:39;98021.66;;;22.45;53.32
21574;BME280;10948;48.706;9.258;2024-02-15T11:00:05;98026.78;;;21.27;51.81
21574;BME280;10948;48.706;9.258;2024-02-15T11:02:39;98028.56;;;21.79;52.11
21574;BME280;10948;48.706;9.258;2024-02-15T11:05:08;98021.63;;;22.71;51.61
21574;BME280;10948;48.706;9.258;2024-02-15T11:07:35;98022.13;;;23.32;50.23
21574;BME280;10948;48.706;9.258;2024-02-15T11:10:00;98023.97;;;23.39;50.38
21574;BME280;10948;48.706;9.258;2024-02-15T11:12:28;98011.59;;;23.06;50.14
21574;BME280;10948;48.706;9.258;2024-02-15T11:14:54;98003.22;;;22.85;50.28
21574;BME280;10948;48.706;9.258;2024-02-15T11:20:08;98000.97;;;23.06;49.03
21574;BME280;10948;48.706;9.258;2024-02-15T11:22:35;97999.34;;;21.71;50.25
21574;BME280;10948;48.706;9.258;2024-02-15T11:25:06;97995.88;;;22.63;50.92
21574;BME280;10948;48.706;9.258;2024-02-15T11:27:37;97988.16;;;21.85;51.42
21574;BME280;10948;48.706;9.258;2024-02-15T11:30:03;97982.94;;;21.93;51.48
21574;BME280;10948;48.706;9.258;2024-02-15T11:32:40;97982.56;;;22.22;51.12
21574;BME280;10948;48.706;9.258;2024-02-15T11:42:39;97971.22;;;22.79;50.28
21574;BME280;10948;48.706;9.258;2024-02-15T11:47:32;97969.59;;;22.44;51.14
21574;BME280;10948;48.706;9.258;2024-02-15T11:49:59;97965.59;;;21.73;52.91
21574;BME280;10948;48.706;9.258;2024-02-15T11:52:24;97961.66;;;22.44;52.39
21574;BME280;10948;48.706;9.258;2024-02-15T11:54:49;97956.25;;;22.28;51.43
21574;BME280;10948;48.706;9.258;2024-02-15T11:57:15;97959.81;;;23.10;50.46
21574;BME280;10948;48.706;9.258;2024-02-15T11:59:51;97958.50;;;23.54;50.48
21574;BME280;10948;48.706;9.258;2024-02-15T12:02:37;97955.47;;;22.02;52.65
21574;BME280;10948;48.706;9.258;2024-02-15T12:05:21;97948.81;;;21.98;51.70
21574;BME280;10948;48.706;9.258;2024-02-15T12:08:05;97952.47;;;21.11;52.90
21574;BME280;10948;48.706;9.258;2024-02-15T12:10:59;97953.41;;;21.63;51.24
21574;BME280;10948;48.706;9.258;2024-02-15T12:13:43;97954.09;;;20.60;52.26
21574;BME280;10948;48.706;9.258;2024-02-15T12:16:27;97958.25;;;20.89;52.58
21574;BME280;10948;48.706;9.258;2024-02-15T12:19:11;97947.44;;;21.18;52.82
21574;BME280;10948;48.706;9.258;2024-02-15T12:21:36;97943.41;;;22.08;50.82
21574;BME280;10948;48.706;9.258;2024-02-15T12:24:06;97941.94;;;20.67;53.05
21574;BME280;10948;48.706;9.258;2024-02-15T12:26:32;97932.75;;;20.71;53.84
21574;BME280;10948;48.706;9.258;2024-02-15T12:28:59;97925.28;;;20.39;53.38
21574;BME280;10948;48.706;9.258;2024-02-15T12:31:26;97925.22;;;19.49;55.34
21574;BME280;10948;48.706;9.258;2024-02-15T12:34:04;97915.78;;;19.83;56.06
21574;BME280;10948;48.706;9.258;2024-02-15T12:36:35;97916.03;;;19.62;56.60
21574;BME280;10948;48.706;9.258;2024-02-15T12:39:04;97914.56;;;20.76;55.35
21574;BME280;10948;48.706;9.258;2024-02-15T12:41:57;97899.88;;;21.08;52.77
21574;BME280;10948;48.706;9.258;2024-02-15T12:44:21;97895.38;;;21.09;52.45
21574;BME280;10948;48.706;9.258;2024-02-15T12:46:47;97901.53;;;21.09;52.79
21574;BME280;10948;48.706;9.258;2024-02-15T12:51:52;97893.06;;;20.88;52.88
21574;BME280;10948;48.706;9.258;2024-02-15T12:54:21;97884.72;;;20.83;52.44
21574;BME280;10948;48.706;9.258;2024-02-15T12:56:47;97882.41;;;20.18;53.31
21574;BME280;10948;48.706;9.258;2024-02-15T12:59:14;97872.63;;;20.63;53.64
21574;BME280;10948;48.706;9.258;2024-02-15T13:01:40;97874.94;;;20.93;52.57
21574;BME280;10948;48.706;9.258;2024-02-15T13:04:05;97871.81;;;20.80;52.39
21574;BME280;10948;48.706;9.258;2024-02-15T13:06:31;97869.00;;;20.47;53.33
21574;BME280;10948;48.706;9.258;2024-02-15T13:08:59;97861.31;;;20.88;52.84
21574;BME280;10948;48.706;9.258;2024-02-15T13:11:25;97862.28;;;19.81;54.40
21574;BME280;10948;48.706;9.258;2024-02-15T13:13:51;97855.97;;;19.91;55.96